createdAt,value
2022-09-06T01:48:31.707Z,101162.88
2022-09-06T01:51:10.503Z,101161.59
2022-09-06T01:53:55.947Z,101159.34
2022-09-06T01:56:36.826Z,101156.50
2022-09-06T01:59:29.281Z,101155.56
2022-09-06T02:02:03.425Z,101146.34
2022-09-06T02:04:42.001Z,101155.09
2022-09-06T02:07:16.965Z,101154.59
2022-09-06T02:09:49.575Z,101150.63
2022-09-06T02:12:20.998Z,101150.47
2022-09-06T02:14:54.124Z,101144.91
2022-09-06T02:17:27.524Z,101140.63
2022-09-06T02:20:02.834Z,101132.97
2022-09-06T02:22:36.198Z,101132.97
2022-09-06T02:25:08.299Z,101136.00
2022-09-06T02:27:37.920Z,101133.28
2022-09-06T02:30:07.613Z,101132.50
2022-09-06T02:32:40.974Z,101133.16
2022-09-06T02:35:15.726Z,101129.31
2022-09-06T02:37:45.667Z,101130.44
2022-09-06T02:40:14.413Z,101130.59
2022-09-06T02:42:43.674Z,101128.06
2022-09-06T02:45:12.312Z,101123.78
2022-09-06T02:47:40.516Z,101126.78
2022-09-06T02:50:12.732Z,101124.25
2022-09-06T02:52:41.073Z,101126.16
2022-09-06T02:55:10.057Z,101125.53
2022-09-06T02:57:38.251Z,101129.81
2022-09-06T03:00:07.706Z,101120.91
2022-09-06T03:02:36.134Z,101122.81
2022-09-06T03:05:04.473Z,101119.28
2022-09-06T03:07:34.086Z,101126.09
2022-09-06T03:10:02.987Z,101120.25
2022-09-06T03:12:31.325Z,101120.53
2022-09-06T03:14:59.585Z,101125.13
2022-09-06T03:17:27.798Z,101123.81
2022-09-06T03:19:56.035Z,101118.44
2022-09-06T03:22:24.264Z,101123.56
2022-09-06T03:24:53.909Z,101120.09
2022-09-06T03:27:22.162Z,101126.47
2022-09-06T03:29:50.406Z,101129.78
2022-09-06T03:32:18.737Z,101128.34
2022-09-06T03:34:46.927Z,101124.53
2022-09-06T03:37:15.525Z,101127.06
2022-09-06T03:39:44.049Z,101132.13
2022-09-06T03:42:13.736Z,101132.56
2022-09-06T03:44:42.063Z,101125.09
2022-09-06T03:47:10.365Z,101119.84
2022-09-06T03:49:38.572Z,101127.78
2022-09-06T03:52:07.240Z,101125.66
2022-09-06T03:54:36.166Z,101129.81
2022-09-06T03:57:04.644Z,101129.94
2022-09-06T03:59:34.577Z,101133.28
2022-09-06T04:02:02.961Z,101123.88
2022-09-06T04:04:31.259Z,101138.25
2022-09-06T04:06:59.428Z,101135.31
2022-09-06T04:09:27.657Z,101137.38
2022-09-06T04:11:56.000Z,101145.03
2022-09-06T04:14:24.444Z,101136.88
2022-09-06T04:16:54.121Z,101140.97
2022-09-06T04:19:22.592Z,101137.44
2022-09-06T04:21:50.821Z,101146.56
2022-09-06T04:24:18.979Z,101142.78
2022-09-06T04:26:47.155Z,101140.81
2022-09-06T04:29:15.328Z,101144.06
2022-09-06T04:31:43.595Z,101135.53
2022-09-06T04:34:13.290Z,101140.06
2022-09-06T04:36:43.651Z,101137.56
2022-09-06T04:39:15.938Z,101147.78
2022-09-06T04:41:44.318Z,101143.03
2022-09-06T04:44:12.659Z,101147.56
2022-09-06T04:46:43.135Z,101146.00
2022-09-06T04:49:12.733Z,101145.50
2022-09-06T04:51:41.493Z,101148.88
2022-09-06T04:54:09.694Z,101148.78
2022-09-06T04:56:37.935Z,101147.97
2022-09-06T04:59:06.118Z,101143.91
2022-09-06T05:01:34.366Z,101142.72
2022-09-06T05:04:02.875Z,101137.19
2022-09-06T05:06:32.500Z,101147.59
2022-09-06T05:09:01.342Z,101134.69
2022-09-06T05:11:29.664Z,101144.16
2022-09-06T05:13:57.906Z,101137.81
2022-09-06T05:16:26.290Z,101138.59
2022-09-06T05:18:54.607Z,101145.16
2022-09-06T05:21:23.052Z,101151.56
2022-09-06T05:23:55.470Z,101146.94
2022-09-06T05:26:26.809Z,101158.22
2022-09-06T05:28:55.022Z,101169.53
2022-09-06T05:31:28.539Z,101152.94
2022-09-06T05:33:57.639Z,101155.56
2022-09-06T05:36:26.569Z,101157.88
2022-09-06T05:38:57.461Z,101157.00
2022-09-06T05:41:26.285Z,101151.78
2022-09-06T05:43:54.772Z,101158.19
2022-09-06T05:46:23.413Z,101147.81
2022-09-06T05:48:55.524Z,101148.28
2022-09-06T05:51:24.326Z,101160.38
2022-09-06T05:53:52.551Z,101155.59
2022-09-06T05:56:22.705Z,101159.56
2022-09-06T05:58:50.965Z,101155.84
2022-09-06T06:01:21.003Z,101159.75
2022-09-06T06:03:54.152Z,101169.03
2022-09-06T06:06:23.618Z,101157.56
2022-09-06T06:08:51.965Z,101161.72
2022-09-06T06:11:22.159Z,101176.13
2022-09-06T06:13:50.990Z,101163.59
2022-09-06T06:16:20.841Z,101167.16
2022-09-06T06:18:52.359Z,101160.25
2022-09-06T06:21:23.178Z,101164.41
2022-09-06T06:23:53.403Z,101166.78
2022-09-06T06:26:24.103Z,101170.75
2022-09-06T06:28:53.416Z,101167.28
2022-09-06T06:31:22.779Z,101174.50
2022-09-06T06:33:51.345Z,101164.16
2022-09-06T06:36:24.513Z,101164.72
2022-09-06T06:38:55.375Z,101165.94
2022-09-06T06:41:26.425Z,101160.97
2022-09-06T06:43:54.889Z,101158.94
2022-09-06T06:46:24.415Z,101160.84
2022-09-06T06:48:55.228Z,101166.00
2022-09-06T06:51:25.461Z,101173.16
2022-09-06T06:53:54.227Z,101176.97
2022-09-06T06:56:25.755Z,101175.81
2022-09-06T06:58:55.843Z,101174.41
2022-09-06T07:01:26.042Z,101182.00
2022-09-06T07:03:54.832Z,101178.31
2022-09-06T07:09:12.365Z,101176.97
2022-09-06T07:11:42.283Z,101176.78
2022-09-06T07:14:10.484Z,101183.97
2022-09-06T07:16:38.760Z,101184.59
2022-09-06T07:19:07.110Z,101197.66
2022-09-06T07:24:08.385Z,101184.03
2022-09-06T07:26:39.383Z,101181.84
2022-09-06T07:29:10.292Z,101180.94
2022-09-06T07:34:27.717Z,101192.53
2022-09-06T07:36:56.941Z,101191.88
2022-09-06T07:39:25.581Z,101194.44
2022-09-06T07:41:53.840Z,101187.63
2022-09-06T07:44:23.380Z,101190.31
2022-09-06T07:46:52.620Z,101198.53
2022-09-06T07:49:21.054Z,101203.44
2022-09-06T07:51:49.559Z,101200.38
2022-09-06T07:54:33.056Z,101192.78
2022-09-06T07:57:01.371Z,101202.38
2022-09-06T07:59:31.054Z,101200.09
2022-09-06T08:01:59.299Z,101204.97
2022-09-06T08:04:27.536Z,101200.34
2022-09-06T08:09:45.586Z,101203.66
2022-09-06T08:12:13.840Z,101216.59
2022-09-06T08:14:43.574Z,101203.41
2022-09-06T08:17:11.851Z,101205.69
2022-09-06T08:19:40.424Z,101211.47
2022-09-06T08:22:08.879Z,101202.84
2022-09-06T08:24:37.060Z,101201.97
2022-09-06T08:27:07.817Z,101202.53
2022-09-06T08:29:36.224Z,101192.00
2022-09-06T08:32:05.949Z,101189.44
2022-09-06T08:34:34.241Z,101204.72
2022-09-06T08:37:02.657Z,101188.41
2022-09-06T08:39:31.023Z,101192.59
2022-09-06T08:42:03.789Z,101193.13
2022-09-06T08:47:25.722Z,101189.97
2022-09-06T08:49:58.033Z,101193.97
2022-09-06T08:52:49.347Z,101193.66
2022-09-06T08:55:34.930Z,101182.81
2022-09-06T08:58:13.446Z,101181.41
2022-09-06T09:00:47.554Z,101190.19
2022-09-06T09:03:20.367Z,101182.66
2022-09-06T09:05:51.153Z,101185.00
2022-09-06T09:08:26.930Z,101187.84
2022-09-06T09:10:59.845Z,101185.84
2022-09-06T09:13:35.106Z,101179.94
2022-09-06T09:16:03.789Z,101179.19
2022-09-06T09:18:36.001Z,101170.75
2022-09-06T09:21:05.000Z,101180.97
2022-09-06T09:23:33.897Z,101162.81
2022-09-06T09:26:06.010Z,101170.09
2022-09-06T09:28:35.601Z,101161.25
2022-09-06T09:31:04.682Z,101161.59
2022-09-06T09:33:36.942Z,101159.81
2022-09-06T09:36:11.037Z,101155.69
2022-09-06T09:38:43.700Z,101158.00
2022-09-06T09:41:25.245Z,101145.69
2022-09-06T09:44:03.700Z,101146.03
2022-09-06T09:46:34.341Z,101154.13
2022-09-06T09:49:07.054Z,101156.06
2022-09-06T09:51:37.575Z,101153.53
2022-09-06T09:54:08.555Z,101153.13
2022-09-06T09:56:44.977Z,101157.94
2022-09-06T09:59:26.417Z,101146.75
2022-09-06T10:01:57.309Z,101139.31
2022-09-06T10:04:47.248Z,101148.03
2022-09-06T10:07:17.675Z,101155.00
2022-09-06T10:09:48.455Z,101143.91
2022-09-06T10:12:29.772Z,101139.38
2022-09-06T10:14:59.521Z,101142.97
2022-09-06T10:17:34.112Z,101143.50
2022-09-06T10:20:08.945Z,101137.63
2022-09-06T10:22:48.553Z,101137.38
2022-09-06T10:25:35.297Z,101135.09
2022-09-06T10:28:36.605Z,101124.09
2022-09-06T10:31:28.747Z,101120.75
2022-09-06T10:34:20.027Z,101120.00
2022-09-06T10:37:02.229Z,101114.16
2022-09-06T10:39:43.563Z,101108.44
2022-09-06T10:42:21.939Z,101119.91
2022-09-06T10:45:06.687Z,101109.09
2022-09-06T10:47:56.491Z,101110.56
2022-09-06T10:50:31.796Z,101099.28
2022-09-06T10:53:08.109Z,101109.91
2022-09-06T10:55:40.207Z,101108.50
2022-09-06T11:00:46.882Z,101101.72
2022-09-06T11:06:15.164Z,101100.53
2022-09-06T11:08:53.419Z,101107.28
2022-09-06T11:11:27.989Z,101105.16
2022-09-06T11:13:56.208Z,101093.13
2022-09-06T11:16:31.277Z,101096.03
2022-09-06T11:19:04.358Z,101090.78
2022-09-06T11:22:06.107Z,101093.75
2022-09-06T11:24:51.833Z,101091.69
2022-09-06T11:27:29.690Z,101090.09
2022-09-06T11:30:00.902Z,101089.44
2022-09-06T11:32:38.647Z,101082.66
2022-09-06T11:35:11.128Z,101081.31
2022-09-06T11:37:43.010Z,101075.78
2022-09-06T11:40:26.795Z,101074.63
2022-09-06T11:43:18.056Z,101095.34
2022-09-06T11:45:49.811Z,101081.31
2022-09-06T11:48:37.334Z,101078.63
2022-09-06T11:51:11.000Z,101078.22
2022-09-06T11:54:07.625Z,101070.50
2022-09-06T11:56:42.232Z,101069.00
2022-09-06T11:59:24.476Z,101071.19
2022-09-06T12:02:02.235Z,101077.44
2022-09-06T12:05:09.910Z,101067.78
2022-09-06T12:07:39.115Z,101067.84
2022-09-06T12:10:40.123Z,101057.00
2022-09-06T12:13:41.179Z,101063.25
2022-09-06T12:16:12.379Z,101067.31
2022-09-06T12:19:10.560Z,101061.72
2022-09-06T12:21:42.982Z,101063.34
2022-09-06T12:24:52.303Z,101053.06
2022-09-06T12:27:22.443Z,101052.72
2022-09-06T12:29:59.540Z,101049.22
2022-09-06T12:32:36.717Z,101054.06
2022-09-06T12:38:03.733Z,101048.19
2022-09-06T12:40:34.134Z,101044.19
2022-09-06T12:43:04.641Z,101056.31
2022-09-06T12:45:33.282Z,101055.63
2022-09-06T12:48:11.919Z,101044.50
2022-09-06T12:50:41.815Z,101055.31
2022-09-06T12:53:24.537Z,101063.88
2022-09-06T12:56:05.513Z,101054.78
2022-09-06T12:58:34.212Z,101049.25
2022-09-06T13:01:10.818Z,101048.56
2022-09-06T13:03:45.750Z,101047.59
2022-09-06T13:06:24.565Z,101053.53
2022-09-06T13:08:57.260Z,101048.28
2022-09-06T13:11:29.598Z,101048.44
2022-09-06T13:13:58.352Z,101051.75
2022-09-06T13:16:28.661Z,101051.66
2022-09-06T13:19:12.912Z,101047.25
2022-09-06T13:21:43.024Z,101040.56
2022-09-06T13:24:22.017Z,101038.88
2022-09-06T13:26:50.798Z,101042.94
2022-09-06T13:29:27.395Z,101034.50
2022-09-06T13:31:57.405Z,101033.91
2022-09-06T13:34:29.065Z,101042.50
2022-09-06T13:37:02.537Z,101037.03
2022-09-06T13:39:35.012Z,101039.25
2022-09-06T13:42:07.432Z,101035.91
2022-09-06T13:44:37.284Z,101032.13
2022-09-06T13:47:06.779Z,101034.38
2022-09-06T13:49:36.336Z,101029.25
2022-09-06T13:52:05.764Z,101036.28
2022-09-06T13:54:34.392Z,101039.09
2022-09-06T13:57:02.943Z,101030.28
2022-09-06T13:59:31.763Z,101029.38
2022-09-06T14:02:02.820Z,101029.19
2022-09-06T14:04:32.467Z,101026.91
2022-09-06T14:07:02.448Z,101027.31
2022-09-06T14:09:30.978Z,101024.00
2022-09-06T14:11:59.264Z,101026.28
2022-09-06T14:14:27.591Z,101022.09
2022-09-06T14:16:55.868Z,101032.16
2022-09-06T14:19:24.527Z,101027.97
2022-09-06T14:21:52.762Z,101027.94
2022-09-06T14:24:22.566Z,101022.06
2022-09-06T14:26:50.950Z,101021.50
2022-09-06T14:29:19.207Z,101018.81
2022-09-06T14:31:48.515Z,101021.91
2022-09-06T14:34:17.015Z,101022.03
2022-09-06T14:36:45.284Z,101010.34
2022-09-06T14:39:13.579Z,101012.25
2022-09-06T14:41:43.190Z,101004.91
2022-09-06T14:44:11.841Z,101007.44
2022-09-06T14:46:40.104Z,101004.72
2022-09-06T14:49:10.413Z,100999.94
2022-09-06T14:51:39.919Z,101002.00
2022-09-06T14:54:10.368Z,100999.59
2022-09-06T14:56:40.547Z,100998.84
2022-09-06T14:59:10.675Z,101002.19
2022-09-06T15:01:40.425Z,101005.03
2022-09-06T15:04:10.921Z,101004.13
2022-09-06T15:06:44.205Z,101011.72
2022-09-06T15:09:12.411Z,101005.88
2022-09-06T15:11:42.661Z,100996.91
2022-09-06T15:14:15.464Z,100999.13
2022-09-06T15:16:44.133Z,100996.00
2022-09-06T15:19:12.871Z,100994.91
2022-09-06T15:21:42.098Z,101004.19
2022-09-06T15:24:12.212Z,100986.34
2022-09-06T15:26:41.146Z,100996.31
2022-09-06T15:29:09.532Z,100995.41
2022-09-06T15:31:40.313Z,101001.06
2022-09-06T15:34:09.126Z,100996.25
2022-09-06T15:36:37.663Z,101002.91
2022-09-06T15:39:06.911Z,100996.50
2022-09-06T15:41:37.229Z,100996.25
2022-09-06T15:44:10.925Z,101004.66
2022-09-06T15:46:46.921Z,101000.63
2022-09-06T15:49:17.349Z,101015.81
2022-09-06T15:51:45.720Z,101005.56
2022-09-06T15:54:15.367Z,101007.47
2022-09-06T15:56:44.540Z,101009.63
2022-09-06T15:59:13.097Z,101008.78
2022-09-06T16:01:41.586Z,101013.91
2022-09-06T16:04:11.273Z,101000.59
2022-09-06T16:06:42.768Z,101007.47
2022-09-06T16:09:14.289Z,100997.66
2022-09-06T16:11:43.327Z,101001.78
2022-09-06T16:14:13.834Z,100999.06
2022-09-06T16:16:43.152Z,100992.41
2022-09-06T16:19:14.218Z,100988.81
2022-09-06T16:21:44.809Z,100994.34
2022-09-06T16:24:15.090Z,100978.03
2022-09-06T16:26:45.481Z,100984.53
2022-09-06T16:29:15.707Z,100986.81
2022-09-06T16:31:43.978Z,100987.16
2022-09-06T16:34:14.430Z,100991.34
2022-09-06T16:36:43.163Z,100988.81
2022-09-06T16:39:11.959Z,100984.59
2022-09-06T16:41:42.655Z,100989.59
2022-09-06T16:44:16.587Z,100984.66
2022-09-06T16:46:46.160Z,100993.41
2022-09-06T16:49:17.481Z,100997.06
2022-09-06T16:51:46.555Z,100988.75
2022-09-06T16:54:15.543Z,100991.34
2022-09-06T16:56:43.975Z,100990.44
2022-09-06T16:59:13.082Z,101001.88
2022-09-06T17:01:42.260Z,101000.09
2022-09-06T17:04:11.069Z,100993.09
2022-09-06T17:06:44.878Z,100991.06
2022-09-06T17:09:14.477Z,100991.50
2022-09-06T17:11:42.841Z,100999.41
2022-09-06T17:14:11.101Z,100987.22
2022-09-06T17:16:56.658Z,100989.94
2022-09-06T17:19:25.119Z,100994.22
2022-09-06T17:21:55.175Z,100998.88
2022-09-06T17:24:23.334Z,100999.47
2022-09-06T17:26:51.525Z,101006.59
2022-09-06T17:29:19.948Z,101015.50
2022-09-06T17:31:49.663Z,101010.00
2022-09-06T17:34:18.290Z,101015.16
2022-09-06T17:36:46.661Z,101019.13
2022-09-06T17:39:18.756Z,101022.06
2022-09-06T17:41:50.062Z,101023.44
2022-09-06T17:44:21.479Z,101024.69
2022-09-06T17:47:11.943Z,101024.91
2022-09-06T17:49:39.478Z,101030.41
2022-09-06T17:52:07.654Z,101029.16
2022-09-06T17:54:37.232Z,101032.34
2022-09-06T17:57:05.693Z,101031.78
2022-09-06T17:59:35.712Z,101034.50
2022-09-06T18:02:05.185Z,101036.44
2022-09-06T18:04:33.545Z,101044.03
2022-09-06T18:07:02.052Z,101040.44
2022-09-06T18:09:30.668Z,101038.88
2022-09-06T18:12:00.281Z,101036.47
2022-09-06T18:14:29.600Z,101033.22
2022-09-06T18:16:57.900Z,101038.41
2022-09-06T18:19:27.012Z,101040.97
2022-09-06T18:21:57.341Z,101035.47
2022-09-06T18:24:25.811Z,101037.38
2022-09-06T18:26:54.139Z,101043.84
2022-09-06T18:29:24.255Z,101044.09
2022-09-06T18:31:54.268Z,101043.13
2022-09-06T18:34:23.082Z,101040.19
2022-09-06T18:36:51.567Z,101046.50
2022-09-06T18:39:20.572Z,101042.66
2022-09-06T18:42:11.391Z,101035.47
2022-09-06T18:44:41.086Z,101033.75
2022-09-06T18:47:15.639Z,101039.44
2022-09-06T18:49:44.505Z,101037.75
2022-09-06T18:52:12.980Z,101048.59
2022-09-06T18:54:41.547Z,101051.91
2022-09-06T18:57:10.126Z,101042.75
2022-09-06T18:59:38.611Z,101046.84
2022-09-06T19:02:08.630Z,101049.00
2022-09-06T19:04:39.456Z,101039.50
2022-09-06T19:07:07.976Z,101041.53
2022-09-06T19:09:36.567Z,101047.19
2022-09-06T19:12:05.192Z,101044.25
2022-09-06T19:14:34.046Z,101037.78
2022-09-06T19:17:02.762Z,101042.31
2022-09-06T19:19:32.575Z,101050.34
2022-09-06T19:22:01.165Z,101045.06
2022-09-06T19:24:29.570Z,101046.06
2022-09-06T19:26:58.025Z,101046.25
2022-09-06T19:29:27.592Z,101050.34
2022-09-06T19:31:57.251Z,101049.66
2022-09-06T19:34:25.844Z,101049.91
2022-09-06T19:36:57.430Z,101043.22
2022-09-06T19:39:32.304Z,101035.44
2022-09-06T19:42:03.215Z,101044.16
2022-09-06T19:44:31.464Z,101046.50
2022-09-06T19:47:00.286Z,101038.50
2022-09-06T19:49:29.631Z,101042.56
2022-09-06T19:51:59.529Z,101046.59
2022-09-06T19:54:27.969Z,101039.94
2022-09-06T19:56:56.221Z,101042.97
2022-09-06T19:59:24.485Z,101039.09
2022-09-06T20:01:52.683Z,101048.81
2022-09-06T20:04:21.269Z,101042.00
2022-09-06T20:06:49.641Z,101051.91
2022-09-06T20:09:19.246Z,101050.97
2022-09-06T20:11:47.491Z,101043.50
2022-09-06T20:14:15.842Z,101043.47
2022-09-06T20:16:44.170Z,101039.00
2022-09-06T20:19:15.062Z,101045.78
2022-09-06T20:21:44.460Z,101048.59
2022-09-06T20:24:12.746Z,101040.78
2022-09-06T20:26:42.423Z,101047.50
2022-09-06T20:29:11.251Z,101040.72
2022-09-06T20:31:39.795Z,101050.09
2022-09-06T20:34:08.331Z,101047.72
2022-09-06T20:36:38.263Z,101050.88
2022-09-06T20:39:06.497Z,101042.75
2022-09-06T20:41:35.025Z,101048.50
2022-09-06T20:44:05.164Z,101038.19
2022-09-06T20:46:35.322Z,101048.19
2022-09-06T20:49:04.940Z,101048.84
2022-09-06T20:51:34.775Z,101049.63
2022-09-06T20:54:04.830Z,101040.06
2022-09-06T20:56:35.297Z,101040.78
2022-09-06T20:59:07.312Z,101038.56
2022-09-06T21:01:37.465Z,101036.38
2022-09-06T21:04:07.463Z,101034.91
2022-09-06T21:06:37.674Z,101032.06
2022-09-06T21:09:07.355Z,101030.56
2022-09-06T21:11:36.014Z,101026.16
2022-09-06T21:14:06.252Z,101029.28
2022-09-06T21:16:34.797Z,101022.94
2022-09-06T21:19:05.535Z,101021.38
2022-09-06T21:21:35.405Z,101023.97
2022-09-06T21:24:05.171Z,101020.38
2022-09-06T21:26:34.200Z,101016.84
2022-09-06T21:29:02.690Z,101017.50
2022-09-06T21:31:34.706Z,101024.06
2022-09-06T21:34:05.157Z,101022.94
2022-09-06T21:36:35.528Z,101016.63
2022-09-06T21:39:05.924Z,101021.09
2022-09-06T21:41:35.658Z,101019.72
2022-09-06T21:44:05.339Z,101021.19
2022-09-06T21:46:37.333Z,101020.59
2022-09-06T21:49:07.902Z,101015.44
2022-09-06T21:51:36.824Z,101012.53
2022-09-06T21:54:06.025Z,101012.63
2022-09-06T21:56:35.999Z,101020.84
2022-09-06T21:59:05.477Z,101024.34
2022-09-06T22:01:36.717Z,101014.72
2022-09-06T22:04:06.143Z,101014.47
2022-09-06T22:06:36.195Z,101013.84
2022-09-06T22:09:10.758Z,101026.75
2022-09-06T22:11:39.926Z,101019.34
2022-09-06T22:14:10.772Z,101008.59
2022-09-06T22:16:41.949Z,101012.03
2022-09-06T22:19:11.099Z,101012.16
2022-09-06T22:21:39.886Z,101008.44
2022-09-06T22:24:10.842Z,101006.22
2022-09-06T22:26:40.228Z,101016.22
2022-09-06T22:29:10.560Z,101010.38
2022-09-06T22:31:40.655Z,101003.03
2022-09-06T22:34:09.346Z,101006.63
2022-09-06T22:36:37.526Z,101003.50
2022-09-06T22:39:06.223Z,101010.81
2022-09-06T22:41:35.184Z,101006.88
2022-09-06T22:44:05.329Z,100999.09
2022-09-06T22:46:34.192Z,101007.53
2022-09-06T22:49:05.415Z,101011.41
2022-09-06T22:51:34.171Z,101012.94
2022-09-06T22:54:02.480Z,101010.41
2022-09-06T22:56:30.637Z,101012.94
2022-09-06T22:59:00.886Z,101014.00
2022-09-06T23:01:29.504Z,101009.84
2022-09-06T23:03:57.791Z,101012.22
2022-09-06T23:06:27.499Z,101006.94
2022-09-06T23:08:55.704Z,101009.66
2022-09-06T23:11:23.935Z,101003.19
2022-09-06T23:13:56.800Z,101003.44
2022-09-06T23:16:25.701Z,101002.38
2022-09-06T23:18:54.693Z,101002.06
2022-09-06T23:21:24.857Z,101006.94
2022-09-06T23:23:56.797Z,101001.59
2022-09-06T23:26:28.835Z,101001.47
2022-09-06T23:28:57.535Z,100998.53
2022-09-06T23:31:27.408Z,101008.13
2022-09-06T23:33:57.433Z,100988.59
2022-09-06T23:36:25.758Z,100989.44
2022-09-06T23:38:56.138Z,100988.00
2022-09-06T23:41:24.880Z,100988.53
2022-09-06T23:43:53.279Z,100996.00
2022-09-06T23:46:21.681Z,100989.97
2022-09-06T23:48:49.951Z,100986.00
2022-09-06T23:51:18.294Z,100984.69
2022-09-06T23:53:46.681Z,100981.22
2022-09-06T23:56:16.338Z,100981.00
2022-09-06T23:58:44.554Z,100984.97
